createdAt,value
2023-03-29T00:00:13.276Z,101671.02
2023-03-29T00:01:35.264Z,101670.41
2023-03-29T00:02:14.725Z,101670.52
2023-03-29T00:03:15.473Z,101670.67
2023-03-29T00:04:16.058Z,101670.02
2023-03-29T00:04:25.204Z,101609.66
2023-03-29T00:05:25.761Z,101664.59
2023-03-29T00:06:26.321Z,101664.00
2023-03-29T00:07:27.206Z,101663.94
2023-03-29T00:08:28.116Z,101663.52
2023-03-29T00:09:28.740Z,101662.84
2023-03-29T00:10:29.375Z,101662.20
2023-03-29T00:11:30.093Z,101661.94
2023-03-29T00:12:30.763Z,101661.59
2023-03-29T00:13:31.722Z,101661.61
2023-03-29T00:14:32.441Z,101660.92
2023-03-29T00:15:33.070Z,101659.69
2023-03-29T00:15:41.770Z,101595.78
2023-03-29T00:16:42.421Z,101652.00
2023-03-29T00:17:43.268Z,101651.35
2023-03-29T00:18:43.939Z,101651.17
2023-03-29T00:19:44.691Z,101651.25
2023-03-29T00:20:45.631Z,101650.75
2023-03-29T00:21:46.343Z,101650.02
2023-03-29T00:22:46.975Z,101648.92
2023-03-29T00:23:47.708Z,101648.16
2023-03-29T00:24:48.502Z,101647.49
2023-03-29T00:25:49.225Z,101647.59
2023-03-29T00:26:49.871Z,101646.48
2023-03-29T00:26:58.582Z,101642.67
2023-03-29T00:27:59.310Z,101641.57
2023-03-29T00:29:00.200Z,101640.91
2023-03-29T00:30:00.820Z,101639.73
2023-03-29T00:31:01.737Z,101638.48
2023-03-29T00:32:02.213Z,101637.45
2023-03-29T00:33:02.886Z,101636.89
2023-03-29T00:34:03.539Z,101635.70
2023-03-29T00:35:04.268Z,101635.34
2023-03-29T00:36:04.961Z,101634.34
2023-03-29T00:37:05.609Z,101633.66
2023-03-29T00:38:06.286Z,101633.00
2023-03-29T00:38:14.950Z,101614.04
2023-03-29T00:39:15.663Z,101624.39
2023-03-29T00:40:16.285Z,101623.56
2023-03-29T00:41:16.918Z,101623.03
2023-03-29T00:42:17.686Z,101622.44
2023-03-29T00:43:18.498Z,101622.20
2023-03-29T00:44:19.199Z,101620.94
2023-03-29T00:45:19.988Z,101619.83
2023-03-29T00:46:20.827Z,101618.66
2023-03-29T00:47:21.424Z,101617.64
2023-03-29T00:48:22.089Z,101616.20
2023-03-29T00:48:31.803Z,101583.39
2023-03-29T00:49:32.441Z,101592.34
2023-03-29T00:50:33.104Z,101592.00
2023-03-29T00:51:33.991Z,101591.67
2023-03-29T00:52:34.696Z,101591.02
2023-03-29T00:53:35.621Z,101590.93
2023-03-29T00:54:36.279Z,101590.00
2023-03-29T00:55:37.010Z,101588.83
2023-03-29T00:56:37.804Z,101587.60
2023-03-29T00:57:37.826Z,101586.84
2023-03-29T00:58:38.441Z,101586.17
2023-03-29T00:58:51.555Z,101516.58
2023-03-29T00:59:51.171Z,101571.75
2023-03-29T01:00:51.895Z,101571.57
2023-03-29T01:01:52.715Z,101572.17
2023-03-29T01:02:53.406Z,101572.59
2023-03-29T01:03:54.478Z,101572.61
2023-03-29T01:04:54.748Z,101572.37
2023-03-29T01:05:55.482Z,101571.55
2023-03-29T01:06:56.471Z,101571.65
2023-03-29T01:07:56.561Z,101571.14
2023-03-29T01:08:57.329Z,101570.98
2023-03-29T01:09:06.572Z,101515.22
2023-03-29T01:10:07.439Z,101561.12
2023-03-29T01:11:07.514Z,101560.62
2023-03-29T01:12:07.680Z,101559.36
2023-03-29T01:13:08.365Z,101558.52
2023-03-29T01:14:09.089Z,101557.84
2023-03-29T01:15:09.761Z,101556.84
2023-03-29T01:16:10.676Z,101555.67
2023-03-29T01:17:11.609Z,101554.92
2023-03-29T01:18:12.369Z,101553.50
2023-03-29T01:19:12.941Z,101552.66
2023-03-29T01:19:21.652Z,101455.52
2023-03-29T01:20:22.375Z,101527.67
2023-03-29T01:21:22.706Z,101527.42
2023-03-29T01:22:23.322Z,101526.92
2023-03-29T01:23:24.073Z,101526.75
2023-03-29T01:24:24.822Z,101527.25
2023-03-29T01:25:26.239Z,101527.61
2023-03-29T01:26:25.980Z,101527.85
2023-03-29T01:27:26.723Z,101527.42
2023-03-29T01:28:27.529Z,101526.87
2023-03-29T01:29:28.101Z,101526.61
2023-03-29T01:30:28.868Z,101525.85
2023-03-29T01:30:37.560Z,101476.42
2023-03-29T01:31:38.231Z,101510.78
2023-03-29T01:32:38.908Z,101510.95
2023-03-29T01:33:39.500Z,101511.17
2023-03-29T01:34:40.240Z,101511.02
2023-03-29T01:35:40.325Z,101511.27
2023-03-29T01:36:40.972Z,101511.52
2023-03-29T01:37:41.612Z,101511.78
2023-03-29T01:38:42.462Z,101511.28
2023-03-29T01:39:43.046Z,101511.28
2023-03-29T01:40:43.399Z,101510.52
2023-03-29T01:41:44.114Z,101509.26
2023-03-29T01:41:52.756Z,101410.58
2023-03-29T01:42:53.461Z,101501.72
2023-03-29T01:43:54.155Z,101501.05
2023-03-29T01:44:54.953Z,101500.30
2023-03-29T01:45:55.770Z,101499.95
2023-03-29T01:46:56.561Z,101499.03
2023-03-29T01:47:57.441Z,101498.53
2023-03-29T01:48:57.495Z,101498.34
2023-03-29T01:49:58.112Z,101497.93
2023-03-29T01:50:59.089Z,101497.78
2023-03-29T01:51:59.725Z,101497.42
2023-03-29T01:53:00.140Z,101496.82
2023-03-29T01:53:09.271Z,101479.83
2023-03-29T01:54:09.956Z,101492.49
2023-03-29T01:55:10.721Z,101492.06
2023-03-29T01:56:11.511Z,101491.56
2023-03-29T01:57:12.189Z,101490.47
2023-03-29T01:58:12.950Z,101490.13
2023-03-29T01:59:13.704Z,101489.12
2023-03-29T02:00:14.331Z,101488.63
2023-03-29T02:01:15.192Z,101487.45
2023-03-29T02:02:15.858Z,101486.71
2023-03-29T02:03:16.566Z,101485.37
2023-03-29T02:04:17.492Z,101484.45
2023-03-29T02:04:29.179Z,101354.00
2023-03-29T02:05:30.105Z,101464.94
2023-03-29T02:06:30.885Z,101465.28
2023-03-29T02:07:31.626Z,101465.88
2023-03-29T02:08:32.421Z,101466.36
2023-03-29T02:09:32.433Z,101466.88
2023-03-29T02:10:33.051Z,101467.27
2023-03-29T02:11:34.122Z,101467.51
2023-03-29T02:12:34.758Z,101467.58
2023-03-29T02:13:34.781Z,101468.07
2023-03-29T02:14:35.133Z,101468.47
2023-03-29T02:15:35.854Z,101469.12
2023-03-29T02:15:44.567Z,101430.77
2023-03-29T02:16:45.307Z,101461.31
2023-03-29T02:17:46.034Z,101460.98
2023-03-29T02:18:46.753Z,101460.81
2023-03-29T02:19:47.456Z,101461.31
2023-03-29T02:20:48.237Z,101460.97
2023-03-29T02:21:48.977Z,101461.25
2023-03-29T02:22:49.844Z,101461.66
2023-03-29T02:23:50.503Z,101461.23
2023-03-29T02:24:51.221Z,101460.57
2023-03-29T02:25:51.309Z,101459.40
2023-03-29T02:26:00.019Z,101454.23
2023-03-29T02:27:00.111Z,101453.22
2023-03-29T02:28:00.859Z,101452.89
2023-03-29T02:29:01.560Z,101452.72
2023-03-29T02:30:02.302Z,101452.33
2023-03-29T02:31:03.433Z,101452.00
2023-03-29T02:32:03.763Z,101451.83
2023-03-29T02:33:04.512Z,101452.16
2023-03-29T02:34:05.283Z,101451.73
2023-03-29T02:35:05.962Z,101451.82
2023-03-29T02:36:06.699Z,101452.16
2023-03-29T02:37:07.630Z,101452.08
2023-03-29T02:37:17.749Z,101362.41
2023-03-29T02:38:18.399Z,101448.94
2023-03-29T02:39:19.054Z,101448.44
2023-03-29T02:40:19.159Z,101448.36
2023-03-29T02:41:19.572Z,101447.69
2023-03-29T02:42:20.353Z,101447.07
2023-03-29T02:43:21.886Z,101446.91
2023-03-29T02:44:21.861Z,101446.09
2023-03-29T02:45:22.694Z,101445.33
2023-03-29T02:46:23.582Z,101444.83
2023-03-29T02:47:24.248Z,101444.92
2023-03-29T02:48:24.989Z,101444.75
2023-03-29T02:48:33.707Z,101351.69
2023-03-29T02:49:34.630Z,101440.70
2023-03-29T02:50:35.317Z,101440.19
2023-03-29T02:51:36.069Z,101440.12
2023-03-29T02:52:36.848Z,101439.70
2023-03-29T02:53:37.587Z,101438.95
2023-03-29T02:54:38.191Z,101437.78
2023-03-29T02:55:38.956Z,101437.16
2023-03-29T02:56:39.940Z,101437.16
2023-03-29T02:57:40.797Z,101435.77
2023-03-29T02:58:41.472Z,101435.10
2023-03-29T02:59:42.426Z,101434.66
2023-03-29T03:00:43.248Z,101433.73
2023-03-29T03:00:51.917Z,101334.48
2023-03-29T03:01:52.462Z,101430.05
2023-03-29T03:02:53.368Z,101428.98
2023-03-29T03:03:54.017Z,101427.98
2023-03-29T03:04:54.744Z,101426.72
2023-03-29T03:05:55.398Z,101426.81
2023-03-29T03:06:56.299Z,101425.72
2023-03-29T03:07:57.145Z,101425.05
2023-03-29T03:08:58.099Z,101424.80
2023-03-29T03:09:58.897Z,101424.19
2023-03-29T03:10:59.860Z,101423.86
2023-03-29T03:12:00.513Z,101423.34
2023-03-29T03:12:12.693Z,101420.11
2023-03-29T03:13:12.694Z,101420.16
2023-03-29T03:14:13.364Z,101420.25
2023-03-29T03:15:13.997Z,101420.09
2023-03-29T03:16:14.881Z,101419.50
2023-03-29T03:17:15.004Z,101420.00
2023-03-29T03:18:15.786Z,101419.66
2023-03-29T03:19:15.788Z,101419.83
2023-03-29T03:20:16.414Z,101419.83
2023-03-29T03:21:17.065Z,101420.00
2023-03-29T03:22:17.604Z,101419.83
2023-03-29T03:23:18.223Z,101419.61
2023-03-29T03:23:26.967Z,101324.55
2023-03-29T03:24:28.099Z,101414.17
2023-03-29T03:25:27.067Z,101414.00
2023-03-29T03:26:27.801Z,101414.09
2023-03-29T03:27:28.879Z,101413.98
2023-03-29T03:28:29.604Z,101414.33
2023-03-29T03:29:30.538Z,101414.33
2023-03-29T03:30:31.214Z,101414.58
2023-03-29T03:31:32.106Z,101414.83
2023-03-29T03:32:32.775Z,101415.91
2023-03-29T03:33:32.813Z,101415.82
2023-03-29T03:34:33.762Z,101416.10
2023-03-29T03:34:42.549Z,101408.97
2023-03-29T03:35:43.480Z,101409.31
2023-03-29T03:36:44.432Z,101409.53
2023-03-29T03:37:44.618Z,101409.86
2023-03-29T03:38:45.562Z,101410.72
2023-03-29T03:39:46.294Z,101411.02
2023-03-29T03:40:47.049Z,101411.70
2023-03-29T03:41:47.816Z,101411.85
2023-03-29T03:42:48.612Z,101412.59
2023-03-29T03:43:49.293Z,101413.17
2023-03-29T03:44:50.003Z,101414.20
2023-03-29T03:45:00.814Z,101413.02
2023-03-29T03:46:01.661Z,101413.78
2023-03-29T03:47:01.572Z,101414.03
2023-03-29T03:48:02.425Z,101414.27
2023-03-29T03:49:03.140Z,101414.52
2023-03-29T03:50:03.864Z,101414.78
2023-03-29T03:51:04.153Z,101415.53
2023-03-29T03:52:04.770Z,101415.73
2023-03-29T03:53:05.468Z,101416.22
2023-03-29T03:54:06.116Z,101416.97
2023-03-29T03:55:06.797Z,101417.23
2023-03-29T03:56:07.496Z,101417.34
2023-03-29T03:56:17.178Z,101376.39
2023-03-29T03:57:17.915Z,101421.86
2023-03-29T03:58:18.476Z,101422.20
2023-03-29T03:59:19.158Z,101421.86
2023-03-29T04:00:19.972Z,101422.36
2023-03-29T04:01:19.917Z,101422.36
2023-03-29T04:02:20.710Z,101422.45
2023-03-29T04:03:21.295Z,101422.71
2023-03-29T04:04:21.953Z,101422.94
2023-03-29T04:05:22.632Z,101423.28
2023-03-29T04:06:23.496Z,101423.20
2023-03-29T04:07:24.247Z,101423.52
2023-03-29T04:07:33.454Z,101359.51
2023-03-29T04:08:34.324Z,101431.06
2023-03-29T04:09:35.009Z,101430.90
2023-03-29T04:10:35.688Z,101430.34
2023-03-29T04:11:36.383Z,101430.23
2023-03-29T04:12:37.094Z,101430.15
2023-03-29T04:13:37.810Z,101429.73
2023-03-29T04:14:38.572Z,101429.16
2023-03-29T04:15:39.345Z,101428.97
2023-03-29T04:16:40.241Z,101428.30
2023-03-29T04:17:41.103Z,101427.70
2023-03-29T04:18:41.943Z,101427.51
2023-03-29T04:18:50.562Z,101354.50
2023-03-29T04:19:51.235Z,101425.23
2023-03-29T04:20:51.926Z,101424.98
2023-03-29T04:21:52.782Z,101424.31
2023-03-29T04:22:53.487Z,101423.89
2023-03-29T04:23:54.235Z,101423.28
2023-03-29T04:24:55.267Z,101422.36
2023-03-29T04:25:56.062Z,101422.04
2023-03-29T04:26:56.884Z,101421.09
2023-03-29T04:27:57.738Z,101420.52
2023-03-29T04:28:58.540Z,101419.32
2023-03-29T04:29:59.225Z,101418.30
2023-03-29T04:30:08.968Z,101407.48
2023-03-29T04:31:09.669Z,101406.66
2023-03-29T04:32:10.418Z,101406.07
2023-03-29T04:33:11.120Z,101406.49
2023-03-29T04:34:11.707Z,101406.92
2023-03-29T04:35:12.510Z,101407.31
2023-03-29T04:36:13.191Z,101407.23
2023-03-29T04:37:13.932Z,101407.20
2023-03-29T04:38:14.964Z,101407.04
2023-03-29T04:39:15.737Z,101406.87
2023-03-29T04:40:15.801Z,101407.04
2023-03-29T04:41:16.775Z,101406.48
2023-03-29T04:42:17.602Z,101406.48
2023-03-29T04:42:26.252Z,101401.41
2023-03-29T04:43:26.236Z,101409.08
2023-03-29T04:44:27.157Z,101409.33
2023-03-29T04:45:27.960Z,101409.44
2023-03-29T04:46:28.904Z,101410.52
2023-03-29T04:47:30.114Z,101410.94
2023-03-29T04:48:30.790Z,101410.95
2023-03-29T04:49:31.082Z,101410.78
2023-03-29T04:50:31.923Z,101411.05
2023-03-29T04:51:32.613Z,101412.25
2023-03-29T04:52:33.422Z,101412.81
2023-03-29T04:52:42.010Z,101398.59
2023-03-29T04:53:42.703Z,101429.95
2023-03-29T04:54:43.632Z,101429.45
2023-03-29T04:55:44.243Z,101429.61
2023-03-29T04:56:44.997Z,101429.52
2023-03-29T04:57:45.637Z,101429.52
2023-03-29T04:58:46.384Z,101429.02
2023-03-29T04:59:47.138Z,101429.11
2023-03-29T05:00:48.019Z,101428.92
2023-03-29T05:01:48.767Z,101428.94
2023-03-29T05:02:49.673Z,101428.98
2023-03-29T05:02:59.433Z,101372.37
2023-03-29T05:04:00.309Z,101433.52
2023-03-29T05:05:00.839Z,101433.17
2023-03-29T05:06:00.838Z,101432.34
2023-03-29T05:07:01.787Z,101431.92
2023-03-29T05:08:01.861Z,101431.26
2023-03-29T05:09:01.857Z,101431.69
2023-03-29T05:10:02.831Z,101430.84
2023-03-29T05:11:04.007Z,101430.48
2023-03-29T05:12:03.778Z,101429.66
2023-03-29T05:13:04.606Z,101429.30
2023-03-29T05:13:15.658Z,101427.97
2023-03-29T05:14:15.583Z,101427.36
2023-03-29T05:15:15.684Z,101427.28
2023-03-29T05:16:16.670Z,101426.84
2023-03-29T05:17:17.542Z,101426.24
2023-03-29T05:18:18.487Z,101425.30
2023-03-29T05:19:18.456Z,101424.79
2023-03-29T05:20:19.422Z,101424.30
2023-03-29T05:21:20.417Z,101423.36
2023-03-29T05:22:20.866Z,101422.75
2023-03-29T05:23:20.952Z,101421.98
2023-03-29T05:24:21.885Z,101421.63
2023-03-29T05:24:30.562Z,101354.63
2023-03-29T05:25:30.669Z,101420.36
2023-03-29T05:26:31.488Z,101419.86
2023-03-29T05:27:32.239Z,101419.19
2023-03-29T05:28:32.937Z,101418.78
2023-03-29T05:29:33.836Z,101418.44
2023-03-29T05:30:33.846Z,101418.36
2023-03-29T05:31:34.772Z,101417.86
2023-03-29T05:32:34.777Z,101417.78
2023-03-29T05:33:35.577Z,101417.42
2023-03-29T05:34:36.598Z,101417.27
2023-03-29T05:35:36.958Z,101416.98
2023-03-29T05:35:45.715Z,101375.45
2023-03-29T05:36:46.463Z,101414.24
2023-03-29T05:37:47.056Z,101414.49
2023-03-29T05:38:47.867Z,101414.75
2023-03-29T05:39:48.584Z,101414.67
2023-03-29T05:40:49.309Z,101414.25
2023-03-29T05:41:50.161Z,101414.06
2023-03-29T05:42:50.830Z,101413.65
2023-03-29T05:43:51.662Z,101413.65
2023-03-29T05:44:54.488Z,101413.48
2023-03-29T05:45:53.400Z,101413.37
2023-03-29T05:46:02.586Z,101348.81
2023-03-29T05:47:03.325Z,101412.05
2023-03-29T05:48:04.209Z,101411.89
2023-03-29T05:49:04.791Z,101411.72
2023-03-29T05:50:05.548Z,101411.97
2023-03-29T05:51:06.385Z,101412.23
2023-03-29T05:52:07.102Z,101412.06
2023-03-29T05:53:07.793Z,101412.23
2023-03-29T05:54:08.461Z,101412.73
2023-03-29T05:55:09.319Z,101413.23
2023-03-29T05:56:10.116Z,101413.91
2023-03-29T05:57:10.887Z,101414.16
2023-03-29T05:57:22.585Z,101407.35
2023-03-29T05:58:23.184Z,101408.28
2023-03-29T05:59:24.188Z,101409.38
2023-03-29T06:00:24.531Z,101410.64
2023-03-29T06:01:25.183Z,101410.97
2023-03-29T06:02:26.279Z,101412.29
2023-03-29T06:03:27.136Z,101412.96
2023-03-29T06:04:27.879Z,101413.80
2023-03-29T06:05:28.492Z,101413.86
2023-03-29T06:06:28.709Z,101414.54
2023-03-29T06:07:29.369Z,101414.94
2023-03-29T06:08:30.064Z,101415.03
2023-03-29T06:08:39.292Z,101411.61
2023-03-29T06:09:40.140Z,101411.68
2023-03-29T06:10:41.062Z,101412.00
2023-03-29T06:11:41.819Z,101411.98
2023-03-29T06:12:42.646Z,101411.71
2023-03-29T06:13:43.300Z,101412.11
2023-03-29T06:14:43.966Z,101412.34
2023-03-29T06:15:44.605Z,101412.24
2023-03-29T06:16:44.712Z,101412.31
2023-03-29T06:17:45.588Z,101411.62
2023-03-29T06:18:45.980Z,101411.25
2023-03-29T06:19:46.063Z,101410.66
2023-03-29T06:20:46.921Z,101410.95
2023-03-29T06:20:57.000Z,101409.00
2023-03-29T06:21:57.116Z,101408.80
2023-03-29T06:22:57.165Z,101409.12
2023-03-29T06:23:58.054Z,101408.74
2023-03-29T06:24:59.022Z,101408.73
2023-03-29T06:25:59.438Z,101408.36
2023-03-29T06:26:59.570Z,101408.24
2023-03-29T06:27:59.663Z,101408.05
2023-03-29T06:29:00.658Z,101407.84
2023-03-29T06:30:00.742Z,101407.22
2023-03-29T06:31:02.120Z,101406.52
2023-03-29T06:32:02.571Z,101406.48
2023-03-29T06:33:03.564Z,101405.53
2023-03-29T06:33:12.146Z,101380.25
2023-03-29T06:34:13.055Z,101401.81
2023-03-29T06:35:13.067Z,101401.30
2023-03-29T06:36:14.146Z,101401.14
2023-03-29T06:37:14.141Z,101401.28
2023-03-29T06:38:14.261Z,101400.87
2023-03-29T06:39:14.640Z,101401.27
2023-03-29T06:40:15.417Z,101401.33
2023-03-29T06:41:16.400Z,101401.81
2023-03-29T06:42:21.224Z,101402.75
2023-03-29T06:43:17.458Z,101403.22
2023-03-29T06:44:18.448Z,101403.88
2023-03-29T06:44:27.612Z,101400.94
2023-03-29T06:45:29.329Z,101402.02
2023-03-29T06:46:28.648Z,101402.16
2023-03-29T06:47:28.881Z,101402.66
2023-03-29T06:48:29.602Z,101403.22
2023-03-29T06:49:30.577Z,101403.70
2023-03-29T06:50:31.572Z,101404.58
2023-03-29T06:51:32.516Z,101405.48
2023-03-29T06:52:32.472Z,101405.97
2023-03-29T06:53:33.365Z,101406.63
2023-03-29T06:54:34.226Z,101408.20
2023-03-29T06:55:35.149Z,101409.36
2023-03-29T06:55:43.868Z,101397.53
2023-03-29T06:56:44.027Z,101432.98
2023-03-29T06:57:44.068Z,101432.59
2023-03-29T06:58:44.327Z,101432.81
2023-03-29T06:59:45.170Z,101433.14
2023-03-29T07:00:46.043Z,101433.32
2023-03-29T07:01:46.951Z,101433.58
2023-03-29T07:02:47.192Z,101434.22
2023-03-29T07:03:48.047Z,101435.29
2023-03-29T07:04:48.693Z,101435.94
2023-03-29T07:05:49.453Z,101437.36
2023-03-29T07:06:49.579Z,101438.34
2023-03-29T07:07:01.346Z,101433.85
2023-03-29T07:08:01.314Z,101435.98
2023-03-29T07:09:02.218Z,101438.05
2023-03-29T07:10:03.022Z,101439.83
2023-03-29T07:11:04.406Z,101441.61
2023-03-29T07:12:04.799Z,101443.50
2023-03-29T07:13:04.928Z,101445.25
2023-03-29T07:14:05.301Z,101447.30
2023-03-29T07:15:05.552Z,101449.11
2023-03-29T07:16:06.597Z,101450.98
2023-03-29T07:17:06.622Z,101453.02
2023-03-29T07:18:07.433Z,101454.38
2023-03-29T07:18:16.671Z,101479.83
2023-03-29T07:19:17.449Z,101492.09
2023-03-29T07:20:18.155Z,101491.30
2023-03-29T07:21:18.932Z,101490.80
2023-03-29T07:22:19.808Z,101490.86
2023-03-29T07:23:20.459Z,101490.67
2023-03-29T07:24:21.492Z,101490.23
2023-03-29T07:25:22.532Z,101490.66
2023-03-29T07:26:28.760Z,101490.56
2023-03-29T07:27:23.487Z,101490.41
2023-03-29T07:28:24.570Z,101490.28
2023-03-29T07:29:25.346Z,101491.42
2023-03-29T07:29:37.060Z,101291.56
2023-03-29T07:30:37.854Z,101511.82
2023-03-29T07:31:38.511Z,101512.24
2023-03-29T07:32:39.548Z,101512.66
2023-03-29T07:33:40.388Z,101514.07
2023-03-29T07:34:40.942Z,101515.23
2023-03-29T07:35:41.615Z,101516.13
2023-03-29T07:36:42.379Z,101517.09
2023-03-29T07:37:42.478Z,101518.22
2023-03-29T07:38:42.499Z,101519.46
2023-03-29T07:39:43.523Z,101520.88
2023-03-29T07:40:43.560Z,101522.59
2023-03-29T07:40:52.219Z,101513.72
2023-03-29T07:41:52.582Z,101545.41
2023-03-29T07:42:52.829Z,101545.36
2023-03-29T07:43:52.866Z,101545.92
2023-03-29T07:44:53.744Z,101546.17
2023-03-29T07:45:54.753Z,101546.52
2023-03-29T07:46:54.810Z,101546.74
2023-03-29T07:47:55.142Z,101547.20
2023-03-29T07:48:55.807Z,101547.42
2023-03-29T07:49:56.138Z,101547.80
2023-03-29T07:50:56.183Z,101548.59
2023-03-29T07:51:56.876Z,101549.16
2023-03-29T07:52:05.605Z,101576.95
2023-03-29T07:53:05.601Z,101566.39
2023-03-29T07:54:06.085Z,101566.56
2023-03-29T07:55:07.048Z,101566.78
2023-03-29T07:56:07.930Z,101566.95
2023-03-29T07:57:08.592Z,101567.02
2023-03-29T07:58:09.487Z,101567.23
2023-03-29T07:59:09.523Z,101567.72
2023-03-29T08:00:10.405Z,101567.87
2023-03-29T08:01:14.151Z,101568.16
2023-03-29T08:02:12.287Z,101568.21
2023-03-29T08:03:13.337Z,101568.61
2023-03-29T08:03:27.938Z,101587.28
2023-03-29T08:04:28.007Z,101580.22
2023-03-29T08:05:39.962Z,101579.55
2023-03-29T08:06:29.794Z,101579.58
2023-03-29T08:07:30.705Z,101579.44
2023-03-29T08:08:31.662Z,101579.90
2023-03-29T08:09:31.666Z,101580.27
2023-03-29T08:10:31.966Z,101580.75
2023-03-29T08:11:32.805Z,101580.86
2023-03-29T08:12:33.655Z,101582.05
2023-03-29T08:13:33.742Z,101583.09
2023-03-29T08:13:42.495Z,101620.58
2023-03-29T08:14:43.424Z,101593.77
2023-03-29T08:15:43.505Z,101594.11
2023-03-29T08:16:44.234Z,101594.50
2023-03-29T08:17:44.199Z,101594.73
2023-03-29T08:18:45.023Z,101595.66
2023-03-29T08:19:51.210Z,101596.30
2023-03-29T08:20:46.860Z,101596.87
2023-03-29T08:21:47.813Z,101597.88
2023-03-29T08:22:48.657Z,101598.30
2023-03-29T08:23:49.016Z,101598.81
2023-03-29T08:24:49.816Z,101599.31
2023-03-29T08:25:50.631Z,101600.67
2023-03-29T08:25:59.345Z,101635.52
2023-03-29T08:27:00.248Z,101624.91
2023-03-29T08:28:01.169Z,101624.91
2023-03-29T08:29:02.038Z,101624.77
2023-03-29T08:30:02.209Z,101624.94
2023-03-29T08:31:03.241Z,101625.19
2023-03-29T08:32:03.143Z,101625.02
2023-03-29T08:33:04.122Z,101624.84
2023-03-29T08:34:04.110Z,101625.19
2023-03-29T08:35:04.197Z,101625.30
2023-03-29T08:36:05.222Z,101625.05
2023-03-29T08:37:06.156Z,101625.66
2023-03-29T08:37:14.901Z,101634.52
2023-03-29T08:38:15.844Z,101624.95
2023-03-29T08:39:18.505Z,101625.28
2023-03-29T08:40:16.816Z,101625.31
2023-03-29T08:41:17.738Z,101625.57
2023-03-29T08:42:18.656Z,101625.57
2023-03-29T08:43:19.505Z,101625.23
2023-03-29T08:44:20.443Z,101624.81
2023-03-29T08:45:21.152Z,101624.73
2023-03-29T08:46:22.113Z,101624.36
2023-03-29T08:47:22.836Z,101623.86
2023-03-29T08:48:23.530Z,101623.41
2023-03-29T08:48:32.268Z,101542.06
2023-03-29T08:49:33.162Z,101609.40
2023-03-29T08:50:33.186Z,101608.81
2023-03-29T08:51:34.112Z,101608.53
2023-03-29T08:52:34.894Z,101607.83
2023-03-29T08:53:35.583Z,101607.63
2023-03-29T08:54:35.967Z,101607.69
2023-03-29T08:55:36.237Z,101607.13
2023-03-29T08:56:37.068Z,101606.94
2023-03-29T08:57:37.238Z,101607.24
2023-03-29T08:58:37.475Z,101606.79
2023-03-29T08:59:38.401Z,101606.59
2023-03-29T08:59:47.527Z,101491.21
2023-03-29T09:00:48.496Z,101602.44
2023-03-29T09:01:49.592Z,101602.19
2023-03-29T09:02:49.699Z,101602.33
2023-03-29T09:03:49.963Z,101602.41
2023-03-29T09:04:50.720Z,101602.72
2023-03-29T09:05:50.848Z,101602.63
2023-03-29T09:06:51.162Z,101603.11
2023-03-29T09:07:51.163Z,101603.50
2023-03-29T09:08:51.195Z,101604.16
2023-03-29T09:09:51.292Z,101604.30
2023-03-29T09:10:52.249Z,101604.18
2023-03-29T09:11:01.096Z,101473.54
2023-03-29T09:12:01.870Z,101604.39
2023-03-29T09:13:02.806Z,101604.56
2023-03-29T09:14:03.680Z,101605.03
2023-03-29T09:15:05.106Z,101605.46
2023-03-29T09:16:04.222Z,101606.11
2023-03-29T09:17:04.985Z,101606.41
2023-03-29T09:18:05.785Z,101606.30
2023-03-29T09:19:06.568Z,101606.23
2023-03-29T09:20:07.404Z,101606.21
2023-03-29T09:21:08.348Z,101606.48
2023-03-29T09:21:17.052Z,101566.19
2023-03-29T09:22:17.826Z,101607.58
2023-03-29T09:23:18.620Z,101608.09
2023-03-29T09:24:19.501Z,101608.59
2023-03-29T09:25:20.319Z,101609.61
2023-03-29T09:26:20.288Z,101609.58
2023-03-29T09:27:20.328Z,101610.52
2023-03-29T09:28:21.064Z,101611.07
2023-03-29T09:29:21.098Z,101610.95
2023-03-29T09:30:21.890Z,101611.27
2023-03-29T09:31:22.155Z,101611.06
2023-03-29T09:32:23.179Z,101610.66
2023-03-29T09:32:32.863Z,101616.30
2023-03-29T09:33:33.702Z,101609.67
2023-03-29T09:34:34.015Z,101609.25
2023-03-29T09:35:34.956Z,101609.30
2023-03-29T09:36:35.063Z,101609.39
2023-03-29T09:37:36.049Z,101609.44
2023-03-29T09:38:36.567Z,101609.75
2023-03-29T09:39:38.185Z,101608.45
2023-03-29T09:40:37.140Z,101608.22
2023-03-29T09:41:38.095Z,101607.22
2023-03-29T09:42:38.181Z,101606.52
2023-03-29T09:42:48.942Z,101614.98
2023-03-29T09:43:49.017Z,101605.20
2023-03-29T09:44:49.401Z,101604.53
2023-03-29T09:45:49.879Z,101603.66
2023-03-29T09:46:49.916Z,101603.70
2023-03-29T09:47:49.969Z,101602.74
2023-03-29T09:48:50.078Z,101602.42
2023-03-29T09:49:50.144Z,101601.80
2023-03-29T09:50:51.124Z,101601.22
2023-03-29T09:51:51.532Z,101600.70
2023-03-29T09:52:51.730Z,101600.21
2023-03-29T09:53:00.651Z,101528.06
2023-03-29T09:54:01.309Z,101588.83
2023-03-29T09:55:01.396Z,101589.33
2023-03-29T09:56:02.171Z,101589.08
2023-03-29T09:57:02.377Z,101589.13
2023-03-29T09:58:02.679Z,101589.63
2023-03-29T09:59:02.759Z,101590.05
2023-03-29T10:00:02.878Z,101590.95
2023-03-29T10:01:03.457Z,101592.22
2023-03-29T10:02:03.816Z,101592.78
2023-03-29T10:03:04.828Z,101593.83
2023-03-29T10:04:05.158Z,101594.77
2023-03-29T10:05:05.670Z,101594.67
2023-03-29T10:05:15.295Z,101603.30
2023-03-29T10:06:16.222Z,101591.86
2023-03-29T10:07:16.614Z,101591.86
2023-03-29T10:08:19.604Z,101592.02
2023-03-29T10:09:17.754Z,101592.02
2023-03-29T10:10:18.003Z,101591.09
2023-03-29T10:11:18.039Z,101590.80
2023-03-29T10:12:18.817Z,101590.46
2023-03-29T10:13:18.885Z,101589.66
2023-03-29T10:14:19.740Z,101588.56
2023-03-29T10:15:29.006Z,101588.33
2023-03-29T10:16:20.495Z,101587.10
2023-03-29T10:17:20.677Z,101586.32
2023-03-29T10:17:31.182Z,101577.05
2023-03-29T10:18:31.956Z,101572.44
2023-03-29T10:19:32.777Z,101572.31
2023-03-29T10:20:33.629Z,101572.55
2023-03-29T10:21:33.656Z,101572.81
2023-03-29T10:22:34.229Z,101572.62
2023-03-29T10:23:34.404Z,101573.91
2023-03-29T10:24:34.594Z,101574.42
2023-03-29T10:25:34.647Z,101575.21
2023-03-29T10:26:34.914Z,101576.05
2023-03-29T10:27:34.912Z,101576.87
2023-03-29T10:28:36.124Z,101577.42
2023-03-29T10:28:46.835Z,101592.83
2023-03-29T10:29:46.893Z,101595.08
2023-03-29T10:30:46.887Z,101594.78
2023-03-29T10:31:47.304Z,101595.13
2023-03-29T10:32:47.441Z,101594.83
2023-03-29T10:33:48.307Z,101594.11
2023-03-29T10:34:48.802Z,101593.86
2023-03-29T10:35:49.783Z,101593.86
2023-03-29T10:36:49.733Z,101593.22
2023-03-29T10:37:50.672Z,101592.84
2023-03-29T10:38:53.528Z,101592.25
2023-03-29T10:39:06.175Z,101592.05
2023-03-29T10:40:05.516Z,101584.61
2023-03-29T10:41:06.486Z,101583.94
2023-03-29T10:42:06.613Z,101583.59